Terminal Aerodrome Forecast
Issued by NWS Atlanta, GA

Home | Current Version | Previous Version | Text Only | Print | Product List | Glossary On
Versions: 1 2 3 4 5 6 7 8 9 10 11 12 13 14 15 16 17 18 19 20 21 22 23 24 25 26 27 28 29 30 31 32 33 34 35 36 37 38 39 40 41 42 43 44 45 46
986
FTUS42 KFFC 210936 AAC
TAFATL
TAF AMD
KATL 210936Z 2110/2212 08010KT P6SM -RA BKN008 BKN025
      TEMPO 2110/2112 5SM BR BKN006
     FM211200 10004KT 6SM -DZ BR BKN008
     FM211500 16007KT 6SM BR SCT010 BKN025
     FM212000 17008KT P6SM VCSH SCT025 BKN040 PROB30 2122/2202 4SM
      -TSRA BKN030CB
     FM220300 19004KT P6SM VCSH OVC015=

USA.gov is the U.S. government's official web portal to all federal, state and local government web resources and services.